Solon, Iowa
Current Conditions -  °F | °C
As of 6:52 AM on Monday 20 Oct 2014 (Local Time) from KCID Reporting Station
Clear Clear  
Wind Chill: 41°   Ceiling: Unl
Heat Index: 45°   Visibility: 10mi
Dew Point: 42°   Wind: 8mph
Humidity: 90%   Direction: 320°NW
Pressure: 29.93"   Gusts: NA
Location:  41.81°N, 91.49°W
Report Text: KCID 201152Z 32007KT 10SM CLR 07/06 A2993 RMK AO2 SLP137 T00720056 10111 20072 53020
Loading
Personal Weather Stations






























Interactive Weather Map
Tropical Storm Tracking
New forecast layout! Learn more

10-Day Weather Forecast

Advertisements
Track Severe Weather on mobile